Time;durP1;ratioP1;P1;durP2;ratioP2;P2;SDS_P1;SDS_P2;PMS_P1;PMS_P2;Temp;Humidity;BMP_temperature;BMP_pressure;BME280_temperature;BME280_humidity;BME280_pressure;Samples;Min_cycle;Max_cycle;Signal;HPM_P1;HPM_P2
2023/09/10 00:01:40;;;;;;;13.57;8.37;;;;;;;16.45;100.00;100717.25;1417831;91;21501;-82
2023/09/10 00:04:06;;;;;;;11.93;7.63;;;;;;;16.42;100.00;100719.77;1430256;91;21605;-82
2023/09/10 00:06:32;;;;;;;11.93;8.20;;;;;;;16.40;100.00;100719.63;1418161;91;22234;-82
2023/09/10 00:08:59;;;;;;;11.73;8.07;;;;;;;16.40;100.00;100717.81;1434649;91;21457;-82
2023/09/10 00:11:26;;;;;;;17.83;8.20;;;;;;;16.44;100.00;100711.59;1434916;91;22301;-82
2023/09/10 00:13:52;;;;;;;14.17;8.50;;;;;;;16.45;100.00;100714.07;1439902;91;21493;-83
2023/09/10 00:16:18;;;;;;;10.87;8.00;;;;;;;16.49;100.00;100715.08;1423962;91;21502;-82
2023/09/10 00:18:46;;;;;;;12.83;8.20;;;;;;;16.51;100.00;100712.53;1424532;91;21560;-82
2023/09/10 00:21:13;;;;;;;13.27;7.40;;;;;;;16.51;100.00;100708.52;1432413;91;21457;-82
2023/09/10 00:23:39;;;;;;;17.27;7.27;;;;;;;16.50;100.00;100714.88;1431427;91;21524;-83
2023/09/10 00:26:06;;;;;;;11.53;7.67;;;;;;;16.50;100.00;100714.06;1433180;91;21486;-81
2023/09/10 00:28:32;;;;;;;9.37;7.63;;;;;;;16.47;100.00;100704.55;1433160;91;21546;-83
2023/09/10 00:30:58;;;;;;;15.00;7.93;;;;;;;16.46;100.00;100706.41;1427542;91;21620;-82
2023/09/10 00:33:24;;;;;;;14.20;8.57;;;;;;;16.47;100.00;100701.89;1430915;91;21472;-82
2023/09/10 00:35:50;;;;;;;12.10;7.67;;;;;;;16.44;100.00;100699.58;1405198;91;21464;-83
2023/09/10 00:38:16;;;;;;;20.13;8.93;;;;;;;16.41;100.00;100703.43;1428058;91;23045;-83
2023/09/10 00:40:48;;;;;;;13.33;8.47;;;;;;;16.38;100.00;100700.30;1429131;91;21457;-85
2023/09/10 00:43:20;;;;;;;17.33;8.20;;;;;;;16.36;100.00;100704.98;1404108;91;21656;-81
2023/09/10 00:45:47;;;;;;;16.90;8.43;;;;;;;16.32;100.00;100698.34;1431115;90;22352;-80
2023/09/10 00:48:13;;;;;;;14.80;7.47;;;;;;;16.32;100.00;100699.67;1418168;90;22047;-79
2023/09/10 00:50:40;;;;;;;15.47;7.43;;;;;;;16.30;100.00;100701.17;1435992;91;21457;-79
2023/09/10 00:53:07;;;;;;;14.23;8.03;;;;;;;16.31;100.00;100699.33;1426761;91;21530;-79
2023/09/10 00:55:34;;;;;;;13.97;7.40;;;;;;;16.30;100.00;100697.68;1429587;91;21701;-79
2023/09/10 00:58:03;;;;;;;14.13;8.40;;;;;;;16.26;100.00;100692.38;1429495;90;21532;-79
2023/09/10 01:00:30;;;;;;;17.37;8.03;;;;;;;16.22;100.00;100688.70;1430198;91;21634;-79
2023/09/10 01:02:58;;;;;;;13.23;8.23;;;;;;;16.20;100.00;100690.74;1429558;90;21553;-79
2023/09/10 01:05:25;;;;;;;8.73;6.93;;;;;;;16.16;100.00;100690.75;1429143;91;22447;-79
2023/09/10 01:07:52;;;;;;;13.87;6.83;;;;;;;16.16;100.00;100693.42;1424361;91;22441;-80
2023/09/10 01:10:18;;;;;;;12.23;7.53;;;;;;;16.16;100.00;100698.77;1431398;91;21502;-79
2023/09/10 01:13:12;;;;;;;13.97;7.73;;;;;;;16.17;100.00;100699.11;1425150;91;21510;-79
2023/09/10 01:15:48;;;;;;;12.07;8.33;;;;;;;16.17;100.00;100699.11;1430263;91;21398;-79
2023/09/10 01:18:29;;;;;;;13.37;7.13;;;;;;;16.17;100.00;100703.12;1429873;91;21560;-80
2023/09/10 01:21:22;;;;;;;11.80;7.92;;;;;;;16.18;100.00;100700.77;1430696;91;22130;-79
2023/09/10 01:23:54;;;;;;;12.93;6.93;;;;;;;16.19;100.00;100705.08;1425735;91;21754;-79
2023/09/10 01:26:20;;;;;;;12.07;7.17;;;;;;;16.19;100.00;100712.27;1428512;91;22344;-80
2023/09/10 01:28:46;;;;;;;14.77;6.97;;;;;;;16.19;100.00;100709.09;1427902;90;22073;-80
2023/09/10 01:31:13;;;;;;;15.77;8.37;;;;;;;16.19;100.00;100713.09;1426281;91;22114;-80
2023/09/10 01:33:50;;;;;;;14.73;7.97;;;;;;;16.22;100.00;100711.41;1429557;91;21420;-80
2023/09/10 01:36:37;;;;;;;12.10;7.40;;;;;;;16.23;100.00;100711.75;1413189;91;21552;-79
2023/09/10 01:39:37;;;;;;;15.57;8.07;;;;;;;16.23;100.00;100706.41;1428994;91;21591;-79
2023/09/10 01:42:06;;;;;;;16.17;8.40;;;;;;;16.24;100.00;100705.90;1429762;90;21658;-79
2023/09/10 01:44:37;;;;;;;14.00;8.07;;;;;;;16.27;100.00;100703.38;1438677;91;21487;-79
2023/09/10 01:47:04;;;;;;;12.87;7.60;;;;;;;16.30;100.00;100700.35;1433033;91;21516;-80
2023/09/10 01:49:31;;;;;;;14.90;8.03;;;;;;;16.33;100.00;100705.33;1435197;91;21509;-80
2023/09/10 01:51:58;;;;;;;9.37;7.23;;;;;;;16.37;100.00;100709.30;1427251;91;21657;-79
2023/09/10 01:54:24;;;;;;;14.30;7.53;;;;;;;16.36;100.00;100700.97;1426100;90;21495;-80
2023/09/10 01:56:50;;;;;;;13.23;7.87;;;;;;;16.36;100.00;100699.63;1434688;91;21487;-80
2023/09/10 01:59:16;;;;;;;13.57;8.33;;;;;;;16.36;100.00;100700.97;1428626;91;21406;-80
2023/09/10 02:01:42;;;;;;;13.80;8.10;;;;;;;16.31;100.00;100703.34;1426815;91;21517;-80
2023/09/10 02:04:08;;;;;;;14.47;7.80;;;;;;;16.25;100.00;100700.88;1430294;91;21471;-81
2023/09/10 02:06:34;;;;;;;11.70;7.47;;;;;;;16.20;100.00;100703.27;1430900;91;21486;-80
2023/09/10 02:09:00;;;;;;;15.40;8.67;;;;;;;16.18;100.00;100698.09;1434174;91;21478;-81
2023/09/10 02:11:27;;;;;;;15.23;8.00;;;;;;;16.20;100.00;100702.76;1435097;91;21509;-81
2023/09/10 02:13:54;;;;;;;37.20;9.53;;;;;;;16.20;100.00;100710.77;1430647;91;22382;-80
2023/09/10 02:16:20;;;;;;;14.33;8.23;;;;;;;16.18;100.00;100706.10;1425520;91;21634;-80
2023/09/10 02:18:47;;;;;;;13.63;8.13;;;;;;;16.14;100.00;100711.48;1429141;91;21472;-81
2023/09/10 02:21:13;;;;;;;14.70;8.40;;;;;;;16.10;100.00;100709.33;1430993;91;22485;-80
2023/09/10 02:23:42;;;;;;;16.40;8.27;;;;;;;16.07;100.00;100706.51;1428083;91;21509;-80
2023/09/10 02:26:09;;;;;;;14.07;7.63;;;;;;;16.06;100.00;100712.86;1430044;91;22621;-81
2023/09/10 02:28:36;;;;;;;10.03;7.07;;;;;;;16.03;100.00;100713.22;1438712;91;21479;-81
2023/09/10 02:31:07;;;;;;;12.45;8.40;;;;;;;15.99;100.00;100715.39;1428277;91;21515;-80
2023/09/10 02:33:34;;;;;;;13.77;8.10;;;;;;;15.98;100.00;100710.23;1443394;91;21645;-82
2023/09/10 02:36:02;;;;;;;13.67;8.00;;;;;;;15.97;100.00;100719.27;1433642;90;21456;-81
2023/09/10 02:38:29;;;;;;;13.10;7.30;;;;;;;15.94;100.00;100719.59;1436391;90;21598;-81
2023/09/10 02:40:56;;;;;;;12.83;7.80;;;;;;;15.94;100.00;100711.58;1438896;90;21494;-80
2023/09/10 02:43:22;;;;;;;10.90;7.30;;;;;;;15.91;100.00;100714.13;1438034;91;22551;-80
2023/09/10 02:45:49;;;;;;;14.60;7.83;;;;;;;15.93;100.00;100711.27;1419906;91;21427;-81
2023/09/10 02:48:15;;;;;;;9.93;7.67;;;;;;;15.98;100.00;100714.24;1439332;91;21634;-81
2023/09/10 02:50:41;;;;;;;11.33;6.87;;;;;;;15.99;100.00;100711.89;1431600;91;21642;-81
2023/09/10 02:53:07;;;;;;;12.53;7.47;;;;;;;15.95;100.00;100713.27;1435853;91;22565;-80
2023/09/10 02:55:33;;;;;;;12.50;7.10;;;;;;;15.93;100.00;100715.27;1430208;91;21501;-81
2023/09/10 02:57:59;;;;;;;23.47;8.87;;;;;;;15.89;100.00;100708.13;1435382;91;21579;-81
2023/09/10 03:00:25;;;;;;;14.70;8.03;;;;;;;15.85;100.00;100707.30;1435598;91;21510;-80
2023/09/10 03:02:56;;;;;;;10.60;7.93;;;;;;;15.80;100.00;100707.84;1438342;91;22366;-81
2023/09/10 03:05:23;;;;;;;13.78;7.70;;;;;;;15.78;100.00;100712.00;1440311;90;21449;-81
2023/09/10 03:07:52;;;;;;;14.03;7.87;;;;;;;15.74;100.00;100709.38;1437792;91;21701;-80
2023/09/10 03:10:18;;;;;;;10.37;7.33;;;;;;;15.72;100.00;100710.04;1418201;91;22337;-81
2023/09/10 03:12:45;;;;;;;10.10;7.00;;;;;;;15.69;100.00;100710.39;1435706;91;21579;-81
2023/09/10 03:15:11;;;;;;;9.23;7.40;;;;;;;15.63;100.00;100708.39;1438546;91;22091;-79
2023/09/10 03:17:37;;;;;;;11.20;6.97;;;;;;;15.63;100.00;100710.23;1432851;91;21471;-80
2023/09/10 03:20:05;;;;;;;13.17;7.83;;;;;;;15.63;100.00;100715.06;1440460;91;22381;-80
2023/09/10 03:22:32;;;;;;;10.30;6.77;;;;;;;15.61;100.00;100705.56;1441242;90;22355;-80
2023/09/10 03:24:58;;;;;;;11.90;7.93;;;;;;;15.55;100.00;100705.75;1433093;91;21634;-79
2023/09/10 03:27:25;;;;;;;12.20;7.67;;;;;;;15.54;100.00;100708.10;1431717;91;21516;-80
2023/09/10 03:29:51;;;;;;;13.17;8.03;;;;;;;15.52;100.00;100702.92;1435788;90;21595;-79
2023/09/10 03:32:17;;;;;;;12.00;7.80;;;;;;;15.52;100.00;100714.10;1442220;91;21605;-80
2023/09/10 03:34:43;;;;;;;15.30;7.33;;;;;;;15.50;100.00;100701.43;1423982;90;22351;-79
2023/09/10 03:37:09;;;;;;;13.60;6.50;;;;;;;15.47;100.00;100706.61;1442145;91;21457;-80
2023/09/10 03:39:36;;;;;;;14.17;6.43;;;;;;;15.43;100.00;100705.81;1431026;91;21398;-80
2023/09/10 03:42:03;;;;;;;14.33;7.73;;;;;;;15.39;100.00;100701.80;1414151;91;22374;-80
2023/09/10 03:44:29;;;;;;;10.73;8.53;;;;;;;15.34;100.00;100709.83;1430057;91;21988;-80
2023/09/10 03:46:55;;;;;;;11.30;7.17;;;;;;;15.26;100.00;100709.85;1414900;91;21604;-80
2023/09/10 03:49:21;;;;;;;12.50;7.57;;;;;;;15.20;100.00;100709.20;1435035;90;21449;-80
2023/09/10 03:51:49;;;;;;;15.33;7.63;;;;;;;15.15;100.00;100715.55;1437818;90;22410;-80
2023/09/10 03:54:15;;;;;;;13.53;8.43;;;;;;;15.14;100.00;100708.56;1433927;91;21449;-80
2023/09/10 03:56:43;;;;;;;15.00;8.57;;;;;;;15.13;100.00;100710.88;1430148;91;21614;-80
2023/09/10 03:59:10;;;;;;;14.40;7.77;;;;;;;15.12;100.00;100716.72;1437426;90;21679;-80
2023/09/10 04:01:36;;;;;;;15.53;8.37;;;;;;;15.09;100.00;100718.89;1442151;91;22455;-80
2023/09/10 04:04:04;;;;;;;11.30;8.00;;;;;;;15.05;100.00;100713.59;1443706;91;21930;-80
2023/09/10 04:06:30;;;;;;;18.17;7.63;;;;;;;14.99;100.00;100708.91;1431229;91;21633;-80
2023/09/10 04:08:56;;;;;;;12.70;7.97;;;;;;;14.97;100.00;100711.76;1435155;91;21502;-80
2023/09/10 04:11:22;;;;;;;15.70;8.87;;;;;;;14.98;100.00;100709.92;1441060;91;21635;-80
2023/09/10 04:13:49;;;;;;;11.87;8.00;;;;;;;14.96;100.00;100706.11;1437852;91;21501;-81
2023/09/10 04:16:15;;;;;;;11.03;7.97;;;;;;;14.95;100.00;100706.27;1438352;91;22477;-81
2023/09/10 04:18:41;;;;;;;10.03;7.73;;;;;;;14.94;100.00;100704.61;1434439;91;22420;-82
2023/09/10 04:21:08;;;;;;;13.93;7.87;;;;;;;14.93;100.00;100705.59;1432737;91;21405;-81
2023/09/10 04:23:34;;;;;;;12.23;8.23;;;;;;;14.91;100.00;100704.44;1431458;91;21620;-80
2023/09/10 04:26:00;;;;;;;14.37;7.80;;;;;;;14.94;100.00;100708.61;1436914;91;22234;-81
2023/09/10 04:28:27;;;;;;;15.73;7.90;;;;;;;14.93;100.00;100705.59;1443962;91;21472;-81
2023/09/10 04:30:53;;;;;;;10.13;7.50;;;;;;;14.94;100.00;100707.27;1434858;91;21494;-80
2023/09/10 04:33:19;;;;;;;13.60;9.00;;;;;;;14.98;100.00;100705.92;1406820;91;21642;-81
2023/09/10 04:35:57;;;;;;;13.63;8.03;;;;;;;14.99;100.00;100712.91;1429815;91;21457;-81
2023/09/10 04:38:24;;;;;;;13.53;8.27;;;;;;;15.01;100.00;100714.91;1413260;91;21576;-81
2023/09/10 04:40:50;;;;;;;12.73;7.93;;;;;;;15.03;100.00;100715.08;1429916;91;23172;-80
2023/09/10 04:43:17;;;;;;;17.00;9.10;;;;;;;15.07;100.00;100716.89;1430089;91;21494;-81
2023/09/10 04:45:43;;;;;;;14.03;8.33;;;;;;;15.10;100.00;100712.55;1428920;91;21716;-81
2023/09/10 04:48:12;;;;;;;16.07;9.30;;;;;;;15.11;100.00;100716.39;1423749;91;22450;-81
2023/09/10 04:50:37;;;;;;;13.57;7.90;;;;;;;15.12;100.00;100718.55;1412747;91;21582;-81
2023/09/10 04:53:04;;;;;;;21.00;9.63;;;;;;;15.15;100.00;100720.88;1430581;91;21554;-81
2023/09/10 04:55:30;;;;;;;14.70;9.33;;;;;;;15.19;100.00;100716.89;1432925;91;22728;-81
2023/09/10 04:57:56;;;;;;;17.80;10.60;;;;;;;15.22;100.00;100722.35;1427018;91;21398;-80
2023/09/10 05:00:22;;;;;;;17.10;9.67;;;;;;;15.24;100.00;100728.36;1429933;91;21478;-80
2023/09/10 05:02:48;;;;;;;15.10;9.70;;;;;;;15.26;100.00;100728.52;1432380;91;21553;-80
2023/09/10 05:05:14;;;;;;;16.53;10.10;;;;;;;15.28;100.00;100730.52;1434613;91;21420;-80
2023/09/10 05:07:41;;;;;;;14.53;9.97;;;;;;;15.33;100.00;100733.52;1434841;91;21413;-80
2023/09/10 05:10:11;;;;;;;19.63;10.87;;;;;;;15.37;100.00;100725.17;1430633;91;21435;-80
2023/09/10 05:12:37;;;;;;;17.55;10.88;;;;;;;15.43;100.00;100732.48;1431980;91;21450;-79
2023/09/10 05:15:05;;;;;;;19.87;11.27;;;;;;;15.48;100.00;100730.14;1433717;91;21553;-79
2023/09/10 05:17:31;;;;;;;29.97;12.87;;;;;;;15.53;100.00;100735.76;1435433;91;21502;-77
2023/09/10 05:19:58;;;;;;;25.80;13.37;;;;;;;15.60;100.00;100737.26;1429416;91;22329;-76
2023/09/10 05:22:24;;;;;;;19.57;12.63;;;;;;;15.66;100.00;100737.39;1428967;91;21472;-77
2023/09/10 05:24:50;;;;;;;23.00;12.80;;;;;;;15.72;100.00;100734.56;1430693;91;21502;-79
2023/09/10 05:27:16;;;;;;;25.63;14.63;;;;;;;15.77;100.00;100733.04;1432419;91;21649;-78
2023/09/10 05:29:42;;;;;;;25.93;12.10;;;;;;;15.83;100.00;100736.84;1420606;91;21465;-79
2023/09/10 05:32:08;;;;;;;21.17;10.87;;;;;;;15.90;100.00;100734.30;1420314;91;21457;-79
2023/09/10 05:34:35;;;;;;;21.53;10.83;;;;;;;16.00;100.00;100736.27;1433346;91;21478;-79
2023/09/10 05:37:02;;;;;;;22.27;11.07;;;;;;;16.09;100.00;100734.38;1417110;91;22433;-79
2023/09/10 05:39:28;;;;;;;15.57;9.40;;;;;;;16.20;100.00;100737.47;1442445;90;21531;-79
2023/09/10 05:41:54;;;;;;;18.57;9.10;;;;;;;16.33;100.00;100744.06;1433219;91;21435;-80
2023/09/10 05:44:20;;;;;;;20.63;8.37;;;;;;;16.44;100.00;100748.48;1431225;90;22330;-80
2023/09/10 05:46:46;;;;;;;17.90;9.93;;;;;;;16.52;100.00;100749.45;1416586;91;22024;-80
2023/09/10 05:49:12;;;;;;;15.43;9.33;;;;;;;16.61;100.00;100747.86;1426302;91;21535;-80
2023/09/10 05:51:39;;;;;;;15.43;8.90;;;;;;;16.75;100.00;100746.77;1433609;91;22359;-80
2023/09/10 05:54:05;;;;;;;14.83;8.10;;;;;;;16.83;100.00;100754.72;1438197;91;22713;-81
2023/09/10 05:56:31;;;;;;;16.27;9.20;;;;;;;16.93;100.00;100755.30;1418893;91;21656;-81
2023/09/10 05:58:57;;;;;;;18.53;9.97;;;;;;;17.01;100.00;100752.56;1419834;91;22291;-78
2023/09/10 06:01:23;;;;;;;24.80;9.93;;;;;;;17.09;100.00;100756.50;1428852;91;21457;-80
2023/09/10 06:03:50;;;;;;;16.37;9.33;;;;;;;17.21;100.00;100757.39;1441540;91;21649;-77
2023/09/10 06:06:16;;;;;;;15.37;9.53;;;;;;;17.27;100.00;100762.83;1429041;91;21435;-77
2023/09/10 06:08:42;;;;;;;15.40;8.83;;;;;;;17.40;100.00;100762.18;1435740;91;21530;-78
2023/09/10 06:11:08;;;;;;;13.47;8.33;;;;;;;17.58;100.00;100762.66;1434537;91;21427;-77
2023/09/10 06:13:34;;;;;;;19.57;9.58;;;;;;;17.70;100.00;100764.87;1439510;91;21412;-77
2023/09/10 06:16:01;;;;;;;15.85;9.03;;;;;;;17.77;100.00;100761.23;1436850;90;21708;-77
2023/09/10 06:18:27;;;;;;;14.68;8.78;;;;;;;17.92;100.00;100767.11;1435657;91;22432;-78
2023/09/10 06:20:53;;;;;;;16.80;9.40;;;;;;;18.06;100.00;100769.45;1425380;91;21420;-79
2023/09/10 06:23:19;;;;;;;15.63;9.20;;;;;;;18.14;100.00;100770.68;1429363;91;22366;-78
2023/09/10 06:25:46;;;;;;;19.25;8.40;;;;;;;18.17;100.00;100769.78;1436133;91;21449;-78
2023/09/10 06:28:12;;;;;;;15.55;8.80;;;;;;;18.35;100.00;100772.03;1429129;91;21523;-78
2023/09/10 06:30:39;;;;;;;13.45;8.85;;;;;;;18.48;100.00;100773.52;1433508;91;21634;-78
2023/09/10 06:33:05;;;;;;;15.15;8.88;;;;;;;18.63;100.00;100773.97;1443109;91;21730;-78
2023/09/10 06:35:33;;;;;;;18.30;9.00;;;;;;;18.76;100.00;100774.13;1445887;91;21456;-78
2023/09/10 06:37:59;;;;;;;13.85;8.25;;;;;;;18.90;100.00;100769.69;1429445;91;21531;-77
2023/09/10 06:40:26;;;;;;;13.20;7.20;;;;;;;18.98;100.00;100770.06;1444097;91;22439;-78
2023/09/10 06:42:52;;;;;;;15.50;7.90;;;;;;;19.06;100.00;100769.93;1436720;91;21530;-77
2023/09/10 06:45:18;;;;;;;20.72;9.35;;;;;;;19.15;100.00;100769.58;1443582;90;21568;-77
2023/09/10 06:47:44;;;;;;;17.45;8.00;;;;;;;19.27;100.00;100772.55;1427876;91;21463;-78
2023/09/10 06:50:10;;;;;;;18.27;7.97;;;;;;;19.35;100.00;100770.23;1409027;91;21633;-78
2023/09/10 06:52:37;;;;;;;14.65;7.97;;;;;;;19.49;100.00;100771.97;1435413;91;21443;-78
2023/09/10 06:55:03;;;;;;;14.15;7.78;;;;;;;19.58;100.00;100775.32;1435389;91;21479;-78
2023/09/10 06:57:30;;;;;;;14.55;8.58;;;;;;;19.72;100.00;100777.08;1435610;91;21361;-78
2023/09/10 06:59:57;;;;;;;17.35;7.42;;;;;;;19.86;100.00;100774.47;1448235;91;22139;-78
2023/09/10 07:02:25;;;;;;;15.55;8.10;;;;;;;20.02;100.00;100774.95;1428877;90;21642;-80
2023/09/10 07:04:51;;;;;;;18.55;8.45;;;;;;;20.17;100.00;100779.31;1429075;91;22433;-80
2023/09/10 07:07:17;;;;;;;14.65;8.08;;;;;;;20.29;100.00;100782.57;1447585;91;21449;-81
2023/09/10 07:09:44;;;;;;;20.00;8.55;;;;;;;20.39;100.00;100778.14;1441223;91;21442;-79
2023/09/10 07:12:10;;;;;;;16.37;8.65;;;;;;;20.53;100.00;100784.41;1425074;90;21479;-79
2023/09/10 07:14:36;;;;;;;14.30;8.28;;;;;;;20.62;100.00;100785.86;1430739;91;21575;-79
2023/09/10 07:17:03;;;;;;;15.48;8.53;;;;;;;20.78;100.00;100785.99;1440509;91;21398;-79
2023/09/10 07:19:29;;;;;;;10.68;7.33;;;;;;;20.97;100.00;100785.67;1415810;91;21405;-80
2023/09/10 07:21:57;;;;;;;16.32;7.22;;;;;;;21.18;100.00;100781.43;1435746;91;21582;-79
2023/09/10 07:24:23;;;;;;;18.42;7.25;;;;;;;21.31;100.00;100780.57;1433372;90;21479;-79
2023/09/10 07:26:49;;;;;;;15.08;8.25;;;;;;;21.42;100.00;100785.87;1447135;91;21553;-78
2023/09/10 07:29:16;;;;;;;12.43;7.05;;;;;;;21.51;100.00;100780.56;1435908;91;21494;-79
2023/09/10 07:31:43;;;;;;;18.35;7.22;;;;;;;21.55;100.00;100777.78;1430749;91;21472;-78
2023/09/10 07:34:10;;;;;;;15.55;7.67;;;;;;;21.63;100.00;100780.73;1434874;91;21530;-79
2023/09/10 07:36:38;;;;;;;15.53;7.20;;;;;;;21.69;100.00;100775.02;1427879;91;21567;-79
2023/09/10 07:39:05;;;;;;;14.43;7.92;;;;;;;21.72;100.00;100774.10;1432768;91;21346;-79
2023/09/10 07:41:32;;;;;;;14.58;7.65;;;;;;;21.87;100.00;100780.57;1430884;91;21591;-79
2023/09/10 07:44:02;;;;;;;17.92;7.17;;;;;;;21.99;100.00;100776.69;1435276;91;21508;-78
2023/09/10 07:46:29;;;;;;;13.40;7.50;;;;;;;22.14;100.00;100780.44;1434337;91;21479;-78
2023/09/10 07:48:56;;;;;;;14.78;8.28;;;;;;;22.14;100.00;100776.40;1433742;91;21391;-78
2023/09/10 07:51:22;;;;;;;16.30;7.05;;;;;;;22.20;100.00;100768.83;1429578;91;22915;-79
2023/09/10 07:53:48;;;;;;;16.97;8.03;;;;;;;22.27;100.00;100780.41;1436200;91;21708;-79
2023/09/10 07:56:14;;;;;;;13.88;7.53;;;;;;;22.35;100.00;100772.05;1434091;90;21471;-80
2023/09/10 07:58:41;;;;;;;13.98;7.70;;;;;;;22.48;100.00;100784.63;1444892;91;21449;-79
2023/09/10 08:01:07;;;;;;;10.68;7.37;;;;;;;22.61;100.00;100781.01;1443990;91;21465;-79
2023/09/10 08:03:36;;;;;;;12.45;7.78;;;;;;;22.69;100.00;100780.22;1439777;91;21441;-79
2023/09/10 08:06:01;;;;;;;13.80;7.42;;;;;;;22.85;100.00;100784.79;1439888;91;22480;-82
2023/09/10 08:08:27;;;;;;;13.18;7.33;;;;;;;22.94;100.00;100791.03;1430067;90;21693;-85
2023/09/10 08:10:53;;;;;;;18.95;7.67;;;;;;;23.08;100.00;100778.81;1435735;91;21382;-83
2023/09/10 08:13:21;;;;;;;13.48;7.47;;;;;;;23.12;100.00;100781.36;1438621;91;21500;-85
2023/09/10 08:15:47;;;;;;;10.98;6.47;;;;;;;23.13;100.00;100782.50;1435350;91;22514;-84
2023/09/10 08:18:13;;;;;;;14.68;6.70;;;;;;;23.26;100.00;100782.06;1423415;91;21535;-81
2023/09/10 08:20:42;;;;;;;14.63;6.58;;;;;;;23.33;100.00;100778.27;1431830;91;21457;-82
2023/09/10 08:23:09;;;;;;;9.85;6.53;;;;;;;23.52;100.00;100776.91;1433382;91;21679;-85
2023/09/10 08:25:36;;;;;;;12.15;6.35;;;;;;;23.70;100.00;100770.68;1447043;90;21472;-85
2023/09/10 08:28:03;;;;;;;9.30;6.15;;;;;;;23.87;100.00;100764.45;1429575;91;21663;-84
2023/09/10 08:30:31;;;;;;;16.17;7.65;;;;;;;24.01;100.00;100769.17;1435396;91;21630;-85
2023/09/10 08:32:57;;;;;;;9.95;6.70;;;;;;;24.04;100.00;100766.02;1434962;91;21701;-85
2023/09/10 08:35:28;;;;;;;8.85;6.03;;;;;;;23.95;100.00;100768.73;1431049;90;21568;-86
2023/09/10 08:37:54;;;;;;;14.03;6.58;;;;;;;23.92;100.00;100773.78;1427686;91;21523;-82
2023/09/10 08:40:21;;;;;;;10.35;6.33;;;;;;;23.90;100.00;100766.41;1433588;91;21501;-88
2023/09/10 08:43:10;;;;;;;10.18;6.62;;;;;;;24.04;100.00;100766.55;1428513;91;21620;-83
2023/09/10 08:45:36;;;;;;;13.13;6.37;;;;;;;24.15;100.00;100764.95;1432758;91;21531;-86
2023/09/10 08:48:04;;;;;;;9.58;6.67;;;;;;;24.37;100.00;100767.95;1434034;91;21642;-87
2023/09/10 08:50:32;;;;;;;8.95;5.83;;;;;;;24.55;100.00;100762.52;1436034;91;21664;-86
2023/09/10 08:52:59;;;;;;;13.38;7.20;;;;;;;24.73;100.00;100758.91;1431156;91;21501;-87
2023/09/10 08:55:26;;;;;;;13.88;5.95;;;;;;;24.83;100.00;100764.58;1434749;91;21627;-81
2023/09/10 08:57:56;;;;;;;12.45;5.75;;;;;;;24.89;100.00;100765.52;1421394;91;21500;-87
2023/09/10 09:00:23;;;;;;;10.15;6.17;;;;;;;24.82;100.00;100760.20;1436877;91;21442;-87
2023/09/10 09:02:50;;;;;;;15.00;6.30;;;;;;;24.78;100.00;100756.86;1432052;91;23055;-87
2023/09/10 09:05:17;;;;;;;12.20;6.60;;;;;;;24.97;100.00;100765.16;1437318;91;21678;-83
2023/09/10 09:07:54;;;;;;;11.88;6.03;;;;;;;25.13;100.00;100756.34;1440631;91;21436;-84
2023/09/10 09:10:29;;;;;;;9.38;5.83;;;;;;;25.28;100.00;100757.77;1433823;90;22432;-87
2023/09/10 09:12:59;;;;;;;10.70;6.00;;;;;;;25.45;100.00;100755.98;1430486;91;21662;-84
2023/09/10 09:15:26;;;;;;;21.52;6.80;;;;;;;25.60;100.00;100758.19;1428946;91;21457;-86
2023/09/10 09:17:56;;;;;;;17.90;5.97;;;;;;;25.71;100.00;100748.39;1438450;91;21671;-87
2023/09/10 09:20:25;;;;;;;12.43;7.08;;;;;;;25.80;100.00;100751.01;1425880;91;21555;-88
2023/09/10 09:23:06;;;;;;;15.10;6.30;;;;;;;25.95;100.00;100744.58;1442370;91;22462;-88
2023/09/10 09:25:36;;;;;;;9.10;5.37;;;;;;;25.97;100.00;100743.78;1439093;91;21516;-87
2023/09/10 09:28:03;;;;;;;11.95;6.03;;;;;;;26.05;100.00;100748.83;1432550;91;21516;-83
2023/09/10 09:30:29;;;;;;;9.48;5.55;;;;;;;25.97;100.00;100745.14;1434053;91;21450;-87
2023/09/10 09:32:56;;;;;;;13.70;6.25;;;;;;;26.02;100.00;100745.78;1429051;91;21731;-86
2023/09/10 09:35:23;;;;;;;10.45;6.03;;;;;;;26.15;100.00;100744.66;1435670;90;21583;-86
2023/09/10 09:37:49;;;;;;;9.55;5.92;;;;;;;26.23;100.00;100745.63;1445658;91;21442;-86
2023/09/10 09:40:20;;;;;;;16.67;6.10;;;;;;;26.21;100.00;100741.81;1440350;91;21576;-86
2023/09/10 09:42:47;;;;;;;15.03;6.50;;;;;;;26.32;100.00;100740.08;1430723;91;21561;-86
2023/09/10 09:45:13;;;;;;;14.78;6.87;;;;;;;26.46;100.00;100742.77;1433946;91;21601;-86
2023/09/10 09:47:41;;;;;;;16.52;6.70;;;;;;;26.59;100.00;100739.50;1439209;91;21458;-88
2023/09/10 09:50:11;;;;;;;17.10;6.03;;;;;;;26.68;100.00;100742.91;1427007;91;21537;-86
2023/09/10 09:52:37;;;;;;;;;;;;;;;26.68;100.00;100739.38;1430523;91;22941;-85
2023/09/10 09:55:07;;;;;;;19.40;7.05;;;;;;;26.67;100.00;100743.14;1412579;91;21023;-85
2023/09/10 09:57:36;;;;;;;11.68;6.25;;;;;;;26.70;100.00;100739.93;1440763;91;21663;-86
2023/09/10 10:00:11;;;;;;;12.50;6.00;;;;;;;26.69;100.00;100736.39;1431371;91;21443;-84
2023/09/10 10:02:38;;;;;;;24.98;7.05;;;;;;;26.80;100.00;100736.58;1427617;90;21486;-85
2023/09/10 10:05:04;;;;;;;8.05;5.90;;;;;;;26.97;100.00;100734.12;1433868;91;21442;-85
2023/09/10 10:07:33;;;;;;;12.00;6.55;;;;;;;27.08;100.00;100731.57;1432316;91;21471;-85
2023/09/10 10:09:59;;;;;;;9.90;6.05;;;;;;;27.17;100.00;100730.09;1431391;90;21650;-85
2023/09/10 10:12:27;;;;;;;13.43;6.15;;;;;;;27.11;100.00;100729.17;1431882;91;21443;-86
2023/09/10 10:14:55;;;;;;;27.02;5.92;;;;;;;27.11;100.00;100729.17;1435705;91;21435;-88
2023/09/10 10:17:24;;;;;;;11.60;6.22;;;;;;;27.09;97.72;100727.23;1426665;91;21465;-87
2023/09/10 10:19:51;;;;;;;11.18;6.55;;;;;;;27.15;100.00;100724.05;1432774;91;21375;-86
2023/09/10 10:22:18;;;;;;;11.30;6.17;;;;;;;27.20;100.00;100714.65;1440431;91;21408;-88
2023/09/10 10:24:46;;;;;;;13.15;6.45;;;;;;;27.19;90.09;100718.45;1425313;91;22329;-87
2023/09/10 10:27:14;;;;;;;11.10;5.70;;;;;;;27.06;90.15;100718.77;1435425;91;21494;-86
2023/09/10 10:29:41;;;;;;;12.25;5.75;;;;;;;27.05;89.45;100718.48;1421766;90;21582;-87
2023/09/10 10:32:16;;;;;;;11.33;6.80;;;;;;;27.15;90.60;100716.75;1429941;91;21450;-87
2023/09/10 10:34:53;;;;;;;15.40;6.45;;;;;;;27.14;90.47;100705.58;1430628;91;21464;-87
2023/09/10 10:37:49;;;;;;;12.60;6.40;;;;;;;27.22;87.49;100707.08;1435677;91;21494;-88
2023/09/10 10:40:22;;;;;;;11.65;6.33;;;;;;;27.17;89.21;100709.72;1364191;95;21532;-88
2023/09/10 10:43:05;;;;;;;11.03;5.25;;;;;;;27.26;90.28;100710.92;1366524;95;21576;-85
2023/09/10 10:45:33;;;;;;;13.43;6.25;;;;;;;27.26;87.87;100709.56;1385418;95;21523;-85
2023/09/10 10:48:10;;;;;;;9.23;5.55;;;;;;;27.32;89.83;100705.84;1379128;95;21548;-86
2023/09/10 10:50:38;;;;;;;7.70;5.72;;;;;;;27.34;88.49;100705.05;1383386;95;21672;-87
2023/09/10 10:53:24;;;;;;;10.58;5.37;;;;;;;27.47;89.12;100703.84;1376164;95;21510;-87
2023/09/10 10:55:55;;;;;;;14.95;5.92;;;;;;;27.63;90.32;100689.91;1373158;95;21428;-88
2023/09/10 10:58:23;;;;;;;10.35;4.90;;;;;;;27.77;88.67;100689.80;1372783;95;22351;-86
2023/09/10 11:00:56;;;;;;;17.05;5.75;;;;;;;27.84;88.24;100689.62;1382965;95;21457;-89
2023/09/10 11:03:22;;;;;;;8.55;5.50;;;;;;;27.87;81.63;100689.92;1377313;95;22596;-86
2023/09/10 11:06:07;;;;;;;13.03;6.47;;;;;;;27.74;80.61;100686.78;1383883;95;21598;-88
2023/09/10 11:08:38;;;;;;;12.78;5.92;;;;;;;27.79;81.93;100686.84;1385420;95;21609;-87
2023/09/10 11:11:13;;;;;;;13.00;6.65;;;;;;;27.87;82.99;100679.04;1403501;92;21610;-87
2023/09/10 11:14:05;;;;;;;15.53;6.65;;;;;;;27.87;81.80;100678.23;1413977;91;22447;-86